Time;durP1;ratioP1;P1;durP2;ratioP2;P2;SDS_P1;SDS_P2;PMS_P1;PMS_P2;Temp;Humidity;BMP_temperature;BMP_pressure;BME280_temperature;BME280_humidity;BME280_pressure;Samples;Min_cycle;Max_cycle;Signal;HPM_P1;HPM_P2
2022/02/28 00:00:33;;;;;;;;;;;128.20;2048.00;;;;;;6187336;23;19900;-94
2022/02/28 00:02:58;;;;;;;;;;;128.20;2048.00;;;;;;6136746;23;19911;-92
2022/02/28 00:05:24;;;;;;;;;;;128.20;2022.40;;;;;;6161038;23;19978;-88
2022/02/28 00:07:50;;;;;;;;;;;128.10;2048.00;;;;;;6186968;23;19907;-88
2022/02/28 00:10:16;;;;;;;;;;;103.10;2022.40;;;;;;6160954;23;19935;-89
2022/02/28 00:12:43;;;;;;;;;;;128.50;2048.00;;;;;;6160893;23;19900;-87
2022/02/28 00:15:09;;;;;;;;;;;103.30;2048.00;;;;;;6187144;23;19900;-88
2022/02/28 00:17:35;;;;;;;;;;;103.20;2073.60;;;;;;6161139;23;19904;-87
2022/02/28 00:20:03;;;;;;;;;;;103.10;2073.60;;;;;;6160813;23;20298;-89
2022/02/28 00:22:29;;;;;;;;;;;103.00;2073.60;;;;;;6185535;23;19900;-86
2022/02/28 00:24:54;;;;;;;;;;;103.00;2099.20;;;;;;6164611;23;19918;-87
2022/02/28 00:27:20;;;;;;;;;;;102.90;2099.20;;;;;;6190467;23;19900;-86
2022/02/28 00:29:45;;;;;;;;;;;102.90;2099.20;;;;;;6190372;23;19900;-87
2022/02/28 00:32:11;;;;;;;;;;;102.90;2099.20;;;;;;6190609;23;19999;-87
2022/02/28 00:34:37;;;;;;;;;;;102.90;2099.20;;;;;;6190658;23;19900;-88
2022/02/28 00:37:02;;;;;;;;;;;102.80;2124.80;;;;;;6190534;23;19900;-88
2022/02/28 00:39:28;;;;;;;;;;;102.80;2124.80;;;;;;6190402;23;19908;-86
2022/02/28 00:41:54;;;;;;;;;;;102.80;2124.80;;;;;;6190449;23;20390;-87
2022/02/28 00:44:19;;;;;;;;;;;102.70;2124.80;;;;;;6216793;23;19912;-86
2022/02/28 00:46:45;;;;;;;;;;;102.70;2124.80;;;;;;6216824;23;19899;-92
2022/02/28 00:49:11;;;;;;;;;;;102.80;2124.80;;;;;;6190527;23;19911;-93
2022/02/28 00:51:36;;;;;;;;;;;102.80;2124.80;;;;;;6190698;23;19911;-92
2022/02/28 00:54:04;;;;;;;;;;;102.80;2124.80;;;;;;6190383;23;19987;-93
2022/02/28 00:56:29;;;;;;;;;;;102.80;2124.80;;;;;;6190273;23;19907;-92
2022/02/28 00:58:55;;;;;;;;;;;102.90;2124.80;;;;;;6216425;23;19900;-92
2022/02/28 01:01:21;;;;;;;;;;;102.90;2124.80;;;;;;6190357;23;19954;-92
2022/02/28 01:03:46;;;;;;;;;;;103.00;2099.20;;;;;;6190243;23;19908;-89
2022/02/28 01:06:12;;;;;;;;;;;103.00;2124.80;;;;;;6190096;23;19900;-88
2022/02/28 01:08:39;;;;;;;;;;;102.80;2099.20;;;;;;6190135;23;19939;-91
2022/02/28 01:11:05;;;;;;;;;;;103.00;2124.80;;;;;;6190350;23;19911;-93
2022/02/28 01:13:31;;;;;;;;;;;103.10;2099.20;;;;;;6190172;23;19900;-92
2022/02/28 01:15:56;;;;;;;;;;;103.10;2099.20;;;;;;6191664;23;19900;-87
2022/02/28 01:18:22;;;;;;;;;;;103.10;2073.60;;;;;;6191856;23;19974;-92
2022/02/28 01:20:50;;;;;;;;;;;103.10;2099.20;;;;;;6192605;23;20257;-87
2022/02/28 01:23:16;;;;;;;;;;;103.10;2099.20;;;;;;6191655;23;20206;-90
2022/02/28 01:25:42;;;;;;;;;;;103.30;2099.20;;;;;;6191475;23;19918;-88
2022/02/28 01:28:08;;;;;;;;;;;103.10;2124.80;;;;;;6192234;23;19906;-87
2022/02/28 01:30:34;;;;;;;;;;;103.10;2124.80;;;;;;6192169;23;19979;-86
2022/02/28 01:32:59;;;;;;;;;;;103.10;2099.20;;;;;;6192023;23;19900;-87
2022/02/28 01:35:25;;;;;;;;;;;103.10;2124.80;;;;;;6192276;23;19900;-88
2022/02/28 01:37:50;;;;;;;;;;;103.10;2099.20;;;;;;6192455;23;19900;-87
2022/02/28 01:40:16;;;;;;;;;;;103.10;2099.20;;;;;;6192000;23;19971;-87
2022/02/28 01:42:43;;;;;;;;;;;103.10;2124.80;;;;;;6192063;23;19955;-91
2022/02/28 01:45:10;;;;;;;;;;;103.10;2124.80;;;;;;6190702;23;19908;-86
2022/02/28 01:47:36;;;;;;;;;;;103.10;2150.40;;;;;;6218522;23;20365;-88
2022/02/28 01:50:03;;;;;;;;;;;103.00;2150.40;;;;;;6191834;23;19899;-85
2022/02/28 01:52:28;;;;;;;;;;;103.00;2150.40;;;;;;6190196;23;20322;-85
2022/02/28 01:54:54;;;;;;;;;;;103.00;2176.00;;;;;;6166682;23;19908;-88
2022/02/28 01:57:20;;;;;;;;;;;103.00;2150.40;;;;;;6192115;23;19900;-93
2022/02/28 01:59:46;;;;;;;;;;;103.00;2201.60;;;;;;6191840;23;20317;-92
2022/02/28 02:02:13;;;;;;;;;;;102.90;2201.60;;;;;;6192307;23;20313;-87
2022/02/28 02:04:38;;;;;;;;;;;102.90;2201.60;;;;;;6192468;23;19915;-93
2022/02/28 02:07:04;;;;;;;;;;;102.90;2176.00;;;;;;6191287;23;19904;-91
2022/02/28 02:09:32;;;;;;;;;;;102.90;2201.60;;;;;;6191970;23;19978;-86
2022/02/28 02:11:58;;;;;;;;;;;102.90;2201.60;;;;;;6217872;23;19983;-92
2022/02/28 02:14:24;;;;;;;;;;;102.90;2227.20;;;;;;6191714;23;19932;-91
2022/02/28 02:16:49;;;;;;;;;;;103.20;2227.20;;;;;;6191722;23;20309;-86
2022/02/28 02:19:15;;;;;;;;;;;102.90;2227.20;;;;;;6191436;23;19900;-85
2022/02/28 02:21:41;;;;;;;;;;;102.90;2227.20;;;;;;6191381;23;19927;-85
2022/02/28 02:24:06;;;;;;;;;;;102.90;2227.20;;;;;;6193010;23;20313;-84
2022/02/28 02:26:32;;;;;;;;;;;102.90;2227.20;;;;;;6184840;23;19912;-85
2022/02/28 02:28:57;;;;;;;;;;;102.90;2227.20;;;;;;6188852;23;20318;-87
2022/02/28 02:31:23;;;;;;;;;;;102.80;2227.20;;;;;;6190270;23;19900;-87
2022/02/28 02:33:49;;;;;;;;;;;102.80;2227.20;;;;;;6172920;23;19900;-85
2022/02/28 02:36:18;;;;;;;;;;;102.80;2227.20;;;;;;6193173;23;19899;-85
2022/02/28 02:38:44;;;;;;;;;;;102.80;2227.20;;;;;;6192057;23;19918;-83
2022/02/28 02:41:10;;;;;;;;;;;102.80;2227.20;;;;;;6194919;23;19904;-86
2022/02/28 02:47:03;;;;;;;;;;;102.70;2227.20;;;;;;6221317;23;19906;-83
2022/02/28 03:38:30;;;;;;;;;;;77.30;2227.20;;;;;;6252175;22;19922;-83
2022/02/28 07:30:52;;;;;;;;;;;103.20;2227.20;;;;;;6269663;22;19945;-90
2022/02/28 07:36:26;;;;;;;;;;;128.00;2252.80;;;;;;6266646;22;19954;-91
2022/02/28 07:48:01;;;;;;;;;;;153.60;2252.80;;;;;;6186704;23;19947;-92
2022/02/28 07:50:26;;;;;;;;;;;153.90;2252.80;;;;;;6161164;23;19901;-94
2022/02/28 07:52:52;;;;;;;;;;;154.20;2252.80;;;;;;6160340;23;20001;-94
2022/02/28 07:55:18;;;;;;;;;;;154.50;2252.80;;;;;;6160809;23;19935;-89
2022/02/28 07:57:44;;;;;;;;;;;154.50;2252.80;;;;;;6160690;23;19900;-89
2022/02/28 08:00:10;;;;;;;;;;;179.20;2252.80;;;;;;6187497;23;19943;-90
2022/02/28 08:02:52;;;;;;;;;;;179.30;2252.80;;;;;;6171777;23;19907;-93
2022/02/28 08:05:17;;;;;;;;;;;179.50;2252.80;;;;;;6191308;23;19991;-93
2022/02/28 08:07:43;;;;;;;;;;;179.70;2227.20;;;;;;6160629;23;20282;-94
2022/02/28 08:10:09;;;;;;;;;;;179.90;2201.60;;;;;;6160653;23;19988;-87
2022/02/28 08:12:35;;;;;;;;;;;180.10;2124.80;;;;;;6160995;23;19900;-93
2022/02/28 08:15:00;;;;;;;;;;;204.90;2099.20;;;;;;6160957;23;20288;-95
2022/02/28 08:17:26;;;;;;;;;;;205.20;2048.00;;;;;;6161269;23;19907;-96
2022/02/28 08:19:52;;;;;;;;;;;205.30;1996.80;;;;;;6160647;23;19912;-94
2022/02/28 08:22:18;;;;;;;;;;;205.10;2022.40;;;;;;6185449;23;19982;-93
2022/02/28 08:24:44;;;;;;;;;;;205.40;1996.80;;;;;;6185345;23;19952;-94
2022/02/28 08:27:09;;;;;;;;;;;205.50;1945.60;;;;;;6185703;23;20302;-88
2022/02/28 08:29:35;;;;;;;;;;;205.60;1945.60;;;;;;6201656;23;20331;-95
2022/02/28 08:32:01;;;;;;;;;;;;;;;;;;6221770;23;19912;-96
2022/02/28 08:34:27;;;;;;;;;;;230.80;1843.20;;;;;;6248750;23;19969;-95
2022/02/28 08:36:52;;;;;;;;;;;231.20;1792.00;;;;;;6247991;23;19907;-92
2022/02/28 08:39:18;;;;;;;;;;;256.00;1715.20;;;;;;6221226;23;19903;-87
2022/02/28 08:41:44;;;;;;;;;;;282.10;1638.40;;;;;;6247995;23;19907;-93
2022/02/28 08:44:09;;;;;;;;;;;358.40;1510.40;;;;;;6220703;23;20327;-93
2022/02/28 08:46:36;;;;;;;;;;;384.70;1254.40;;;;;;6247273;23;19974;-84
2022/02/28 08:49:02;;;;;;;;;;;435.20;1203.20;;;;;;6220221;23;19990;-83
2022/02/28 08:51:28;;;;;;;;;;;461.00;1126.40;;;;;;6220473;23;19922;-91
2022/02/28 08:53:54;;;;;;;;;;;486.60;1049.60;;;;;;6220550;23;20313;-85
2022/02/28 08:56:19;;;;;;;;;;;487.10;998.40;;;;;;6247235;23;20306;-90
2022/02/28 08:58:45;;;;;;;;;;;512.50;947.20;;;;;;6220297;23;19900;-82
2022/02/28 09:01:12;;;;;;;;;;;538.00;947.20;;;;;;6245714;23;19982;-87
2022/02/28 09:03:38;;;;;;;;;;;563.20;896.00;;;;;;6222502;23;19907;-94
2022/02/28 09:06:06;;;;;;;;;;;563.60;896.00;;;;;;6221409;23;19953;-89
2022/02/28 09:08:32;;;;;;;;;;;588.80;844.80;;;;;;6222487;23;19906;-95
2022/02/28 09:10:58;;;;;;;;;;;588.80;819.20;;;;;;6222138;23;19931;-88
2022/02/28 09:13:25;;;;;;;;;;;614.50;768.00;;;;;;6221059;23;19904;-94
2022/02/28 09:15:50;;;;;;;;;;;615.20;742.40;;;;;;6221129;23;19906;-88
2022/02/28 09:18:16;;;;;;;;;;;615.20;716.80;;;;;;6220724;23;19900;-93
2022/02/28 09:20:42;;;;;;;;;;;640.20;742.40;;;;;;6220139;23;19908;-89
2022/02/28 09:23:07;;;;;;;;;;;640.70;716.80;;;;;;6220251;23;19899;-94
2022/02/28 09:25:33;;;;;;;;;;;666.10;844.80;;;;;;6219876;23;19982;-93
2022/02/28 09:27:58;;;;;;;;;;;691.20;742.40;;;;;;6219952;23;19904;-95
2022/02/28 09:30:26;;;;;;;;;;;;;;;;;;6220270;23;19974;-95
2022/02/28 09:32:51;;;;;;;;;;;691.40;665.60;;;;;;6220233;23;19990;-92
2022/02/28 09:35:17;;;;;;;;;;;691.80;691.20;;;;;;6220333;23;20293;-96
2022/02/28 09:37:43;;;;;;;;;;;717.30;691.20;;;;;;6221324;23;20340;-96
2022/02/28 09:40:09;;;;;;;;;;;717.40;691.20;;;;;;6222072;23;19900;-93
2022/02/28 09:42:34;;;;;;;;;;;743.20;640.00;;;;;;6222408;23;19906;-88
2022/02/28 09:45:00;;;;;;;;;;;768.10;614.40;;;;;;6222049;23;19911;-91
2022/02/28 09:47:27;;;;;;;;;;;768.70;640.00;;;;;;6222023;23;19907;-93
2022/02/28 09:49:53;;;;;;;;;;;793.60;640.00;;;;;;6221828;23;19934;-94
2022/02/28 09:52:19;;;;;;;;;;;794.00;588.80;;;;;;6221811;23;19899;-89
2022/02/28 09:54:45;;;;;;;;;;;768.90;588.80;;;;;;6221821;23;20326;-94
2022/02/28 09:57:11;;;;;;;;;;;794.10;588.80;;;;;;6222063;23;19935;-94
2022/02/28 09:59:37;;;;;;;;;;;794.30;563.20;;;;;;6222398;23;19899;-94
2022/02/28 10:02:03;;;;;;;;;;;794.30;563.20;;;;;;6222165;23;20260;-92
2022/02/28 10:04:28;;;;;;;;;;;819.20;563.20;;;;;;6221594;23;19907;-87
2022/02/28 10:06:54;;;;;;;;;;;819.70;563.20;;;;;;6221521;23;19964;-91
2022/02/28 10:09:20;;;;;;;;;;;819.40;563.20;;;;;;6221379;23;19900;-86
2022/02/28 10:11:50;;;;;;;;;;;844.80;588.80;;;;;;6221430;23;19941;-91
2022/02/28 10:14:16;;;;;;;;;;;845.30;563.20;;;;;;6221807;23;19930;-93
2022/02/28 10:16:48;;;;;;;;;;;845.50;537.60;;;;;;6221373;23;19899;-91
2022/02/28 10:19:21;;;;;;;;;;;844.80;563.20;;;;;;6221200;23;19907;-88
2022/02/28 10:21:48;;;;;;;;;;;845.30;563.20;;;;;;6221144;23;19899;-93
2022/02/28 10:24:18;;;;;;;;;;;845.50;537.60;;;;;;6220990;23;19903;-90
2022/02/28 10:26:45;;;;;;;;;;;870.50;537.60;;;;;;6221616;23;19949;-95
2022/02/28 10:29:12;;;;;;;;;;;870.60;537.60;;;;;;6221463;23;19911;-93
2022/02/28 10:31:40;;;;;;;;;;;870.70;512.00;;;;;;6221672;23;19899;-96
2022/02/28 10:34:15;;;;;;;;;;;871.20;486.40;;;;;;6221256;23;19900;-96
2022/02/28 10:36:47;;;;;;;;;;;870.70;512.00;;;;;;6221407;23;20320;-96
2022/02/28 10:39:14;;;;;;;;;;;845.40;537.60;;;;;;6221353;23;19904;-94
2022/02/28 10:41:41;;;;;;;;;;;794.10;563.20;;;;;;6221310;23;19899;-96
2022/02/28 10:44:11;;;;;;;;;;;742.60;614.40;;;;;;6221320;23;19908;-95
2022/02/28 10:46:42;;;;;;;;;;;691.70;614.40;;;;;;6221622;23;19906;-95
2022/02/28 10:49:19;;;;;;;;;;;665.80;665.60;;;;;;6221560;23;19931;-96
2022/02/28 10:51:47;;;;;;;;;;;614.80;716.80;;;;;;6221533;23;19907;-95
2022/02/28 10:54:14;;;;;;;;;;;665.90;665.60;;;;;;6221297;23;19946;-96
2022/02/28 10:56:56;;;;;;;;;;;717.60;588.80;;;;;;6221180;23;19907;-96
2022/02/28 10:59:26;;;;;;;;;;;614.60;742.40;;;;;;6221100;23;19919;-95
2022/02/28 11:01:52;;;;;;;;;;;538.40;793.60;;;;;;6221194;23;19910;-95
2022/02/28 11:04:28;;;;;;;;;;;486.80;844.80;;;;;;6221494;23;19908;-88
2022/02/28 11:06:54;;;;;;;;;;;460.90;947.20;;;;;;6221481;23;19907;-95
2022/02/28 11:09:35;;;;;;;;;;;435.80;947.20;;;;;;6221395;23;20228;-94
2022/02/28 11:12:03;;;;;;;;;;;;;;;;;;6221246;23;19903;-93
2022/02/28 11:14:29;;;;;;;;;;;410.10;998.40;;;;;;6220875;23;19899;-95
2022/02/28 11:16:54;;;;;;;;;;;384.80;998.40;;;;;;6220861;23;19974;-87
2022/02/28 11:19:20;;;;;;;;;;;;;;;;;;6220211;23;20286;-87
2022/02/28 11:21:46;;;;;;;;;;;359.10;1049.60;;;;;;6220427;23;19899;-95
2022/02/28 11:24:12;;;;;;;;;;;359.00;1100.80;;;;;;6221072;23;20232;-88
2022/02/28 11:26:38;;;;;;;;;;;384.00;1049.60;;;;;;6220545;23;19903;-92
2022/02/28 11:29:03;;;;;;;;;;;359.00;1075.20;;;;;;6220731;23;19925;-93
2022/02/28 11:31:29;;;;;;;;;;;359.30;1075.20;;;;;;6220801;23;19986;-88
2022/02/28 11:34:05;;;;;;;;;;;359.10;1100.80;;;;;;6221678;23;19978;-87
2022/02/28 11:36:52;;;;;;;;;;;358.60;1152.00;;;;;;6221722;23;19910;-89
2022/02/28 11:39:18;;;;;;;;;;;333.10;1177.60;;;;;;6220411;23;19952;-88
2022/02/28 11:41:44;;;;;;;;;;;308.00;1228.80;;;;;;6221468;23;19982;-89
2022/02/28 11:44:12;;;;;;;;;;;307.60;1254.40;;;;;;6221778;23;19930;-89
2022/02/28 11:46:41;;;;;;;;;;;307.60;1254.40;;;;;;6221599;23;19907;-94
2022/02/28 11:49:09;;;;;;;;;;;307.30;1280.00;;;;;;6221864;23;19906;-89
2022/02/28 11:51:38;;;;;;;;;;;282.30;1305.60;;;;;;6221765;23;19922;-89
2022/02/28 11:54:21;;;;;;;;;;;282.00;1331.20;;;;;;6224661;23;19900;-88
2022/02/28 11:56:47;;;;;;;;;;;282.10;1356.80;;;;;;6226393;23;19899;-90
2022/02/28 11:59:13;;;;;;;;;;;282.10;1356.80;;;;;;6197924;23;19986;-90
2022/02/28 12:01:48;;;;;;;;;;;281.80;1356.80;;;;;;6223332;23;19974;-94
2022/02/28 12:04:33;;;;;;;;;;;281.60;1382.40;;;;;;6225147;23;19962;-90
2022/02/28 12:07:07;;;;;;;;;;;256.90;1356.80;;;;;;6224578;23;19900;-94
2022/02/28 12:09:32;;;;;;;;;;;256.90;1382.40;;;;;;6222894;23;19907;-94
2022/02/28 12:12:16;;;;;;;;;;;256.70;1408.00;;;;;;6223017;23;19900;-93
2022/02/28 12:14:54;;;;;;;;;;;256.80;1408.00;;;;;;6221254;23;20313;-94
2022/02/28 12:17:33;;;;;;;;;;;256.60;1408.00;;;;;;6221950;23;20309;-94
2022/02/28 12:20:17;;;;;;;;;;;282.30;1356.80;;;;;;6222453;23;19907;-95
2022/02/28 12:22:55;;;;;;;;;;;333.40;1254.40;;;;;;6224281;23;19904;-92
2022/02/28 12:25:37;;;;;;;;;;;358.70;1203.20;;;;;;6224406;23;19911;-95
2022/02/28 12:28:21;;;;;;;;;;;333.30;1228.80;;;;;;6221780;23;19923;-96
2022/02/28 12:30:55;;;;;;;;;;;358.90;1203.20;;;;;;6221750;23;19922;-91
2022/02/28 12:33:43;;;;;;;;;;;359.00;1152.00;;;;;;6222592;23;19927;-93
2022/02/28 12:36:15;;;;;;;;;;;487.30;921.60;;;;;;6228295;23;19970;-94
2022/02/28 12:38:44;;;;;;;;;;;460.80;972.80;;;;;;6226772;23;20420;-93
2022/02/28 12:41:11;;;;;;;;;;;512.50;870.40;;;;;;6222295;23;19934;-95
2022/02/28 12:43:37;;;;;;;;;;;640.80;716.80;;;;;;6221483;23;19910;-96
2022/02/28 12:46:04;;;;;;;;;;;665.90;716.80;;;;;;6221571;23;20380;-94
2022/02/28 12:48:30;;;;;;;;;;;589.10;793.60;;;;;;6220327;23;19900;-96
2022/02/28 12:51:00;;;;;;;;;;;537.60;870.40;;;;;;6221275;23;20408;-91
2022/02/28 12:53:26;;;;;;;;;;;614.80;742.40;;;;;;6221108;23;19900;-93
2022/02/28 12:55:52;;;;;;;;;;;;;;;;;;6221339;23;19978;-93
2022/02/28 12:58:21;;;;;;;;;;;461.40;972.80;;;;;;6221213;23;19945;-93
2022/02/28 13:00:50;;;;;;;;;;;410.40;1049.60;;;;;;6222566;23;19949;-94
2022/02/28 13:03:17;;;;;;;;;;;384.70;1126.40;;;;;;6219618;23;19998;-93
2022/02/28 13:05:56;;;;;;;;;;;358.80;1203.20;;;;;;6220108;23;20214;-92
2022/02/28 13:08:22;;;;;;;;;;;333.70;1254.40;;;;;;6220884;23;19910;-93
2022/02/28 13:10:47;;;;;;;;;;;332.80;1331.20;;;;;;6220843;23;19900;-95
2022/02/28 13:13:24;;;;;;;;;;;332.90;1331.20;;;;;;6220277;23;19927;-94
2022/02/28 13:15:59;;;;;;;;;;;307.60;1382.40;;;;;;6220334;23;19900;-93
2022/02/28 13:18:25;;;;;;;;;;;;;;;;;;6219685;23;20308;-92
2022/02/28 13:20:51;;;;;;;;;;;281.70;1459.20;;;;;;6219905;23;20051;-93
2022/02/28 13:23:19;;;;;;;;;;;256.90;1484.80;;;;;;6220619;23;19946;-93
2022/02/28 13:25:52;;;;;;;;;;;256.40;1536.00;;;;;;6222489;23;19904;-92
2022/02/28 13:28:18;;;;;;;;;;;256.00;1587.20;;;;;;6220361;23;19927;-93
2022/02/28 13:30:44;;;;;;;;;;;231.10;1638.40;;;;;;6220924;23;19907;-92
2022/02/28 13:33:10;;;;;;;;;;;256.20;1664.00;;;;;;6221162;23;19906;-92
2022/02/28 13:35:37;;;;;;;;;;;231.20;1664.00;;;;;;6221101;23;19939;-82
2022/02/28 13:38:03;;;;;;;;;;;231.20;1664.00;;;;;;6218757;23;19978;-86
2022/02/28 13:40:29;;;;;;;;;;;231.30;1664.00;;;;;;6218551;23;20233;-78
2022/02/28 13:42:55;;;;;;;;;;;256.00;1638.40;;;;;;6245539;23;19905;-86
2022/02/28 13:45:22;;;;;;;;;;;256.00;1664.00;;;;;;6218223;23;19914;-82
2022/02/28 13:47:50;;;;;;;;;;;256.30;1638.40;;;;;;6245565;23;20316;-78
2022/02/28 13:50:17;;;;;;;;;;;256.10;1664.00;;;;;;6244337;23;19935;-79
2022/02/28 13:52:44;;;;;;;;;;;256.20;1689.60;;;;;;6244990;23;19899;-79
2022/02/28 13:55:14;;;;;;;;;;;332.80;1536.00;;;;;;6244202;23;19900;-81
2022/02/28 13:57:50;;;;;;;;;;;332.80;1484.80;;;;;;6218632;23;20312;-82
2022/02/28 14:00:20;;;;;;;;;;;333.10;1484.80;;;;;;6244901;23;19986;-83
2022/02/28 14:02:53;;;;;;;;;;;307.70;1510.40;;;;;;6246135;23;20267;-79
2022/02/28 14:05:19;;;;;;;;;;;282.20;1536.00;;;;;;6217600;23;19907;-84
2022/02/28 14:07:58;;;;;;;;;;;256.70;1612.80;;;;;;6218185;23;19899;-84
2022/02/28 14:10:28;;;;;;;;;;;256.20;1638.40;;;;;;6218230;23;19900;-81
2022/02/28 14:12:54;;;;;;;;;;;231.20;1715.20;;;;;;6218053;23;19950;-79
2022/02/28 14:15:23;;;;;;;;;;;230.70;1792.00;;;;;;6245084;23;19903;-85
2022/02/28 14:17:56;;;;;;;;;;;230.40;1843.20;;;;;;6218046;23;19903;-80
2022/02/28 14:20:22;;;;;;;;;;;205.60;1894.40;;;;;;6217830;23;20321;-86
2022/02/28 14:23:05;;;;;;;;;;;205.40;1920.00;;;;;;6219249;23;19899;-83
2022/02/28 14:25:31;;;;;;;;;;;205.20;1945.60;;;;;;6220172;23;20361;-84
2022/02/28 14:27:57;;;;;;;;;;;204.90;2022.40;;;;;;6220049;23;19899;-85
2022/02/28 14:30:23;;;;;;;;;;;205.10;2099.20;;;;;;6219991;23;19986;-86
2022/02/28 14:32:49;;;;;;;;;;;;;;;;;;6220013;23;19903;-90
2022/02/28 14:35:18;;;;;;;;;;;179.70;2227.20;;;;;;6218629;23;19900;-87
2022/02/28 14:37:45;;;;;;;;;;;179.50;2252.80;;;;;;6220909;23;19907;-88
2022/02/28 14:40:20;;;;;;;;;;;179.60;2252.80;;;;;;6220760;23;19900;-84
2022/02/28 14:42:46;;;;;;;;;;;179.40;2252.80;;;;;;6246812;23;19904;-87
2022/02/28 14:45:11;;;;;;;;;;;179.30;2252.80;;;;;;6220560;23;19911;-80
2022/02/28 14:47:37;;;;;;;;;;;179.30;2252.80;;;;;;6247443;23;19957;-83
2022/02/28 14:50:03;;;;;;;;;;;154.50;2252.80;;;;;;6247410;23;19905;-84
2022/02/28 14:52:28;;;;;;;;;;;154.40;2252.80;;;;;;6247301;23;19904;-81
2022/02/28 14:54:54;;;;;;;;;;;154.50;2252.80;;;;;;6220792;23;19922;-91
2022/02/28 14:57:20;;;;;;;;;;;154.30;2252.80;;;;;;6220669;23;19998;-80
2022/02/28 14:59:46;;;;;;;;;;;154.30;2252.80;;;;;;6220800;23;19900;-88
2022/02/28 15:02:11;;;;;;;;;;;154.40;2252.80;;;;;;6220648;23;19903;-87
2022/02/28 15:04:37;;;;;;;;;;;154.30;2252.80;;;;;;6247831;23;20010;-89
2022/02/28 15:07:03;;;;;;;;;;;154.20;2252.80;;;;;;6221729;23;19943;-87
2022/02/28 15:09:28;;;;;;;;;;;154.10;2252.80;;;;;;6220620;23;19906;-89
2022/02/28 15:11:56;;;;;;;;;;;154.10;2252.80;;;;;;6220845;23;19906;-88
2022/02/28 15:14:22;;;;;;;;;;;154.10;2252.80;;;;;;6220910;23;20347;-79
2022/02/28 15:16:48;;;;;;;;;;;154.00;2252.80;;;;;;6247571;23;19935;-89
2022/02/28 15:19:13;;;;;;;;;;;153.80;2252.80;;;;;;6221231;23;19939;-90
2022/02/28 15:21:39;;;;;;;;;;;153.70;2252.80;;;;;;6221102;23;19904;-90
2022/02/28 15:24:06;;;;;;;;;;;153.60;2252.80;;;;;;6248009;23;19904;-89
2022/02/28 15:26:31;;;;;;;;;;;128.90;2252.80;;;;;;6247746;23;19919;-88
2022/02/28 15:28:57;;;;;;;;;;;153.60;2252.80;;;;;;6221213;23;19899;-89
2022/02/28 15:31:23;;;;;;;;;;;128.90;2252.80;;;;;;6220571;23;19900;-89
2022/02/28 15:33:49;;;;;;;;;;;153.60;2252.80;;;;;;6247489;23;19904;-89
2022/02/28 15:36:14;;;;;;;;;;;128.90;2252.80;;;;;;6247793;23;20198;-89
2022/02/28 15:38:40;;;;;;;;;;;128.90;2252.80;;;;;;6220644;23;19953;-90
2022/02/28 15:41:06;;;;;;;;;;;128.80;2252.80;;;;;;6220745;23;19899;-89
2022/02/28 15:43:31;;;;;;;;;;;128.80;2252.80;;;;;;6220579;23;20309;-87
2022/02/28 15:45:57;;;;;;;;;;;128.70;2252.80;;;;;;6220504;23;19900;-89
2022/02/28 15:48:23;;;;;;;;;;;;;;;;;;6220749;23;19907;-87
2022/02/28 15:50:49;;;;;;;;;;;;;;;;;;6247466;23;20618;-82
2022/02/28 15:53:14;;;;;;;;;;;128.90;2252.80;;;;;;6247236;23;19952;-80
2022/02/28 15:55:41;;;;;;;;;;;128.70;2252.80;;;;;;6248061;23;20319;-85
2022/02/28 15:58:07;;;;;;;;;;;128.70;2252.80;;;;;;6247438;23;19906;-89
2022/02/28 16:00:33;;;;;;;;;;;128.60;2252.80;;;;;;6243043;23;19899;-90
2022/02/28 16:02:59;;;;;;;;;;;;;;;;;;6220360;23;20014;-86
2022/02/28 16:05:25;;;;;;;;;;;;;;;;;;6220508;23;19956;-88
2022/02/28 16:07:51;;;;;;;;;;;;;;;;;;6246331;23;19900;-86
2022/02/28 16:10:17;;;;;;;;;;;;;;;;;;6220676;23;20275;-89
2022/02/28 16:12:43;;;;;;;;;;;;;;;;;;6220762;23;19899;-79
2022/02/28 16:15:09;;;;;;;;;;;;;;;;;;6220432;23;19900;-87
2022/02/28 16:17:35;;;;;;;;;;;;;;;;;;6220661;23;19900;-90
2022/02/28 16:20:01;;;;;;;;;;;;;;;;;;6219637;23;20344;-89
2022/02/28 16:22:27;;;;;;;;;;;;;;;;;;6218900;23;19906;-88
2022/02/28 16:24:53;;;;;;;;;;;;;;;;;;6219278;23;19908;-81
2022/02/28 16:27:19;;;;;;;;;;;;;;;;;;6219095;23;19907;-84
2022/02/28 16:29:45;;;;;;;;;;;;;;;;;;6246244;23;20321;-89
2022/02/28 16:32:11;;;;;;;;;;;;;;;;;;6219776;23;19900;-90
2022/02/28 16:34:37;;;;;;;;;;;;;;;;;;6212843;23;19900;-89
2022/02/28 16:37:03;;;;;;;;;;;;;;;;;;6217384;23;19903;-79
2022/02/28 16:39:29;;;;;;;;;;;;;;;;;;6218679;23;19978;-87
2022/02/28 16:41:55;;;;;;;;;;;;;;;;;;6218758;23;19927;-90
2022/02/28 16:44:21;;;;;;;;;;;;;;;;;;6243328;23;19907;-80
2022/02/28 16:46:47;;;;;;;;;;;;;;;;;;6243677;23;20301;-85
2022/02/28 16:49:13;;;;;;;;;;;;;;;;;;6244365;23;19903;-81
2022/02/28 16:51:39;;;;;;;;;;;;;;;;;;6244938;23;19906;-89
2022/02/28 16:54:05;;;;;;;;;;;;;;;;;;6218577;23;19899;-91
2022/02/28 16:56:31;;;;;;;;;;;;;;;;;;6218550;23;19959;-89
2022/02/28 16:58:57;;;;;;;;;;;;;;;;;;6244849;23;20350;-89
2022/02/28 17:01:23;;;;;;;;;;;;;;;;;;6217221;23;19899;-81
2022/02/28 17:03:49;;;;;;;;;;;;;;;;;;6243433;23;19972;-81
2022/02/28 17:06:15;;;;;;;;;;;;;;;;;;6243696;23;19900;-90
2022/02/28 17:08:41;;;;;;;;;;;;;;;;;;6218578;23;20209;-89
2022/02/28 17:11:07;;;;;;;;;;;;;;;;;;6247183;23;19899;-89
2022/02/28 17:13:33;;;;;;;;;;;;;;;;;;6220675;23;20324;-92
2022/02/28 17:15:59;;;;;;;;;;;;;;;;;;6219954;23;19899;-95
2022/02/28 17:18:25;;;;;;;;;;;;;;;;;;6157435;23;1436209;-94
2022/02/28 17:20:51;;;;;;;;;;;;;;;;;;6221979;23;19904;-94
2022/02/28 17:23:18;;;;;;;;;;;;;;;;;;6220804;23;19970;-89
2022/02/28 17:25:44;;;;;;;;;;;;;;;;;;6220681;23;19907;-90
2022/02/28 17:28:10;;;;;;;;;;;;;;;;;;6221090;23;19899;-93
2022/02/28 17:30:36;;;;;;;;;;;;;;;;;;6217849;23;20321;-92
2022/02/28 17:33:02;;;;;;;;;;;;;;;;;;6220633;23;20343;-94
2022/02/28 17:35:28;;;;;;;;;;;;;;;;;;6220226;23;19900;-91
2022/02/28 17:37:54;;;;;;;;;;;;;;;;;;6220494;23;20313;-92
2022/02/28 17:40:20;;;;;;;;;;;;;;;;;;6220680;23;19952;-91
2022/02/28 17:42:46;;;;;;;;;;;;;;;;;;6220474;23;19906;-92
2022/02/28 17:45:12;;;;;;;;;;;;;;;;;;6220247;23;19912;-92
2022/02/28 17:47:38;;;;;;;;;;;;;;;;;;6220642;23;19899;-92
2022/02/28 17:50:04;;;;;;;;;;;;;;;;;;6220466;23;19906;-93
2022/02/28 17:52:30;;;;;;;;;;;;;;;;;;6220827;23;19906;-93
2022/02/28 17:54:56;;;;;;;;;;;;;;;;;;6226413;23;19899;-91
2022/02/28 17:57:22;;;;;;;;;;;;;;;;;;6221085;23;19903;-92
2022/02/28 17:59:48;;;;;;;;;;;;;;;;;;6222688;23;19899;-91
2022/02/28 18:02:14;;;;;;;;;;;;;;;;;;6222541;23;19954;-93
2022/02/28 18:04:41;;;;;;;;;;;;;;;;;;6222385;23;19953;-91
2022/02/28 18:07:07;;;;;;;;;;;;;;;;;;6222135;23;19938;-91
2022/02/28 18:09:33;;;;;;;;;;;;;;;;;;6222189;23;19900;-91
2022/02/28 18:11:59;;;;;;;;;;;;;;;;;;6222148;23;20022;-93
2022/02/28 18:14:26;;;;;;;;;;;;;;;;;;6221640;23;19899;-91
2022/02/28 18:16:53;;;;;;;;;;;;;;;;;;6221818;23;20244;-93
2022/02/28 18:19:19;;;;;;;;;;;;;;;;;;6222153;23;19911;-93
2022/02/28 18:21:45;;;;;;;;;;;;;;;;;;6222966;23;19906;-92
2022/02/28 18:24:11;;;;;;;;;;;;;;;;;;6221903;23;19914;-92
2022/02/28 18:26:37;;;;;;;;;;;;;;;;;;6221832;23;19900;-92
2022/02/28 18:29:03;;;;;;;;;;;;;;;;;;6221497;23;19899;-91
2022/02/28 18:31:29;;;;;;;;;;;;;;;;;;6221276;23;20228;-93
2022/02/28 18:33:55;;;;;;;;;;;;;;;;;;6223498;23;19900;-92
2022/02/28 18:36:21;;;;;;;;;;;;;;;;;;6249578;23;20371;-93
2022/02/28 18:38:48;;;;;;;;;;;;;;;;;;6223618;23;19900;-93
2022/02/28 18:41:13;;;;;;;;;;;103.30;2227.20;;;;;;6230593;23;19899;-86
2022/02/28 18:43:39;;;;;;;;;;;103.30;2227.20;;;;;;6226407;23;19910;-85
2022/02/28 18:46:10;;;;;;;;;;;103.20;2227.20;;;;;;6230508;23;19899;-85
2022/02/28 18:48:41;;;;;;;;;;;103.10;2227.20;;;;;;6265323;23;19923;-85
2022/02/28 18:51:11;;;;;;;;;;;103.10;2227.20;;;;;;6237251;23;19910;-84
2022/02/28 18:53:38;;;;;;;;;;;;;;;;;;6257977;23;19891;-84
2022/02/28 18:56:07;;;;;;;;;;;;;;;;;;6243918;22;19887;-86
2022/02/28 18:58:33;;;;;;;;;;;;;;;;;;6235932;22;19904;-86
2022/02/28 19:01:02;;;;;;;;;;;;;;;;;;6250772;23;19930;-92
2022/02/28 19:03:28;;;;;;;;;;;;;;;;;;6251046;23;19899;-92
2022/02/28 19:05:54;;;;;;;;;;;;;;;;;;6221866;23;19937;-88
2022/02/28 19:08:21;;;;;;;;;;;;;;;;;;6220504;23;19991;-85
2022/02/28 19:10:47;;;;;;;;;;;;;;;;;;6247454;23;19900;-82
2022/02/28 19:13:14;;;;;;;;;;;;;;;;;;6220975;23;20236;-92
2022/02/28 19:15:40;;;;;;;;;;;;;;;;;;6221068;23;20321;-90